| State | Missouri | Latest | Good (606 cfs) | |
| River | Gasconade River | Rating | Observed | Estimated |
| Updated | 2026-05-10 7:15 (1 hour ago) | Flood - The river is flooding. Obstacles can be treacherous or deadly. The river should be avoided at this stage for casual trips and definitely for the inexperienced. Trips should be attempted only with protective gear and equipment.Flood | (none) | 4809 |
| Discharge | 606 cfs (median: 962 cfs) | High - The river is high and potentially dangerous, especially for the young and / or inexperienced. Normal stream obstacles are sometimes difficult to navigate. Extended distances can be attempted, but canoe travel may not be advisable.High | 1000 | 943 |
| Height | 2.03 feet | Good - Conditions are ideal for a canoe or kayak. Boats typically will drag on fewer than one-quarter of riffles, if at all, and portages are unnecessary or rare. Normal float lengths can be attempted without a problem.Good | 200 | 494 |
| Trend | Rising (falling over 24 hours) | Low - River is low but can still be floated. Some riffles are okay but most come with significant dragging and might need a portage. Float lengths should be reduced to accommodate low flow, dragging, and portages.Low | 100 | 226 |
| USGS | USGS Site ( Duck Duck Go Maps) | Poor - River is too low to float comfortably. Most or all riffles will drag or must be portaged and some obstacles (such as slick shelf rock) cause undue problems. Avoid the river at this stage for casual paddling trips.Poor | (none) | 56 |
A total of 9 rows are displayed.
| Miles | 45.6 |
| Trips | 8 |
| People | 22 |
| Dates | 9 |
| Years | 7 |
| Months | 7 |
| Rows | 9 |
| Sources | 3 |
BLG - Bluegill
CCF - Channel Catfish
CP - Chain Pickerel
FWD - Freshwater Drum
GSF - Green Sunfish
KSB - Kentucky Spotted Bass
LMB - Largemouth Bass
LSF - Longear Sunfish
RB - Rock Bass / Goggle Eye
RSF - Redear Sunfish
RT - Rainbow Trout
SMB - Smallmouth Bass
WB - White Bass
WF - Whitefish
WL - WalleyeThe classic River Trips application is still available for use. It is updated with the new system using a data retrofit. It is no longer maintained. The original River Trips application is no longer updated (as of 1 Dec 2016) but can be checked for errors or for the condition of the data before it was converted to the new system.
| Observation | Height | Discharge | Maximum Discharge | Minimum Discharge | Mean Discharge | P05 | P10 | P20 | P25 | P50 (Median) | P75 | P80 | P90 | P95 |
|---|---|---|---|---|---|---|---|---|---|---|---|---|---|---|
| 2026-05-10 07:15 | 2.03 | 606 | 23200 (1961) | 169 (2001) | 2140 | 179 | 238 | 387 | 458 | 962 | 1830 | 2640 | 3970 | 9230 |
| 2026-05-10 06:15 | 2.02 | 602 | 23200 (1961) | 169 (2001) | 2140 | 179 | 238 | 387 | 458 | 962 | 1830 | 2640 | 3970 | 9230 |
| 2026-05-10 05:15 | 2.05 | 616 | 23200 (1961) | 169 (2001) | 2140 | 179 | 238 | 387 | 458 | 962 | 1830 | 2640 | 3970 | 9230 |
| 2026-05-10 04:15 | 2.04 | 611 | 23200 (1961) | 169 (2001) | 2140 | 179 | 238 | 387 | 458 | 962 | 1830 | 2640 | 3970 | 9230 |
| 2026-05-10 03:15 | 2.04 | 611 | 23200 (1961) | 169 (2001) | 2140 | 179 | 238 | 387 | 458 | 962 | 1830 | 2640 | 3970 | 9230 |
| 2026-05-10 02:15 | 2.05 | 616 | 23200 (1961) | 169 (2001) | 2140 | 179 | 238 | 387 | 458 | 962 | 1830 | 2640 | 3970 | 9230 |
| 2026-05-10 01:15 | 2.05 | 616 | 23200 (1961) | 169 (2001) | 2140 | 179 | 238 | 387 | 458 | 962 | 1830 | 2640 | 3970 | 9230 |
| 2026-05-10 00:15 | 2.05 | 616 | 23200 (1961) | 169 (2001) | 2140 | 179 | 238 | 387 | 458 | 962 | 1830 | 2640 | 3970 | 9230 |
| 2026-05-09 23:15 | 2.06 | 621 | 23200 (1961) | 169 (2001) | 2140 | 179 | 238 | 387 | 458 | 962 | 1830 | 2640 | 3970 | 9230 |
| 2026-05-09 22:15 | 2.06 | 621 | 37800 (2002) | 147 (1955) | 2630 | 198 | 248 | 379 | 478 | 1020 | 1860 | 2310 | 5100 | 8870 |
| 2026-05-09 21:15 | 2.06 | 621 | 37800 (2002) | 147 (1955) | 2630 | 198 | 248 | 379 | 478 | 1020 | 1860 | 2310 | 5100 | 8870 |
| 2026-05-09 20:15 | 2.08 | 631 | 37800 (2002) | 147 (1955) | 2630 | 198 | 248 | 379 | 478 | 1020 | 1860 | 2310 | 5100 | 8870 |
| 2026-05-09 19:15 | 2.08 | 631 | 37800 (2002) | 147 (1955) | 2630 | 198 | 248 | 379 | 478 | 1020 | 1860 | 2310 | 5100 | 8870 |
| 2026-05-09 18:15 | 2.09 | 636 | 37800 (2002) | 147 (1955) | 2630 | 198 | 248 | 379 | 478 | 1020 | 1860 | 2310 | 5100 | 8870 |
| 2026-05-09 17:15 | 2.12 | 651 | 37800 (2002) | 147 (1955) | 2630 | 198 | 248 | 379 | 478 | 1020 | 1860 | 2310 | 5100 | 8870 |
| 2026-05-09 16:15 | 2.12 | 651 | 37800 (2002) | 147 (1955) | 2630 | 198 | 248 | 379 | 478 | 1020 | 1860 | 2310 | 5100 | 8870 |
| 2026-05-09 15:15 | 2.13 | 656 | 37800 (2002) | 147 (1955) | 2630 | 198 | 248 | 379 | 478 | 1020 | 1860 | 2310 | 5100 | 8870 |
| 2026-05-09 14:15 | 2.13 | 656 | 37800 (2002) | 147 (1955) | 2630 | 198 | 248 | 379 | 478 | 1020 | 1860 | 2310 | 5100 | 8870 |
| 2026-05-09 13:15 | 2.13 | 656 | 37800 (2002) | 147 (1955) | 2630 | 198 | 248 | 379 | 478 | 1020 | 1860 | 2310 | 5100 | 8870 |
| 2026-05-09 12:15 | 2.14 | 661 | 37800 (2002) | 147 (1955) | 2630 | 198 | 248 | 379 | 478 | 1020 | 1860 | 2310 | 5100 | 8870 |
| 2026-05-09 11:15 | 2.14 | 661 | 37800 (2002) | 147 (1955) | 2630 | 198 | 248 | 379 | 478 | 1020 | 1860 | 2310 | 5100 | 8870 |
| 2026-05-09 10:15 | 2.15 | 666 | 37800 (2002) | 147 (1955) | 2630 | 198 | 248 | 379 | 478 | 1020 | 1860 | 2310 | 5100 | 8870 |
| 2026-05-09 09:15 | 2.15 | 666 | 37800 (2002) | 147 (1955) | 2630 | 198 | 248 | 379 | 478 | 1020 | 1860 | 2310 | 5100 | 8870 |
| 2026-05-09 08:15 | 2.15 | 666 | 37800 (2002) | 147 (1955) | 2630 | 198 | 248 | 379 | 478 | 1020 | 1860 | 2310 | 5100 | 8870 |
| 2026-05-09 07:15 | 2.17 | 677 | 37800 (2002) | 147 (1955) | 2630 | 198 | 248 | 379 | 478 | 1020 | 1860 | 2310 | 5100 | 8870 |
| 2026-05-09 06:15 | 2.17 | 677 | 37800 (2002) | 147 (1955) | 2630 | 198 | 248 | 379 | 478 | 1020 | 1860 | 2310 | 5100 | 8870 |
| 2026-05-09 05:15 | 2.18 | 682 | 37800 (2002) | 147 (1955) | 2630 | 198 | 248 | 379 | 478 | 1020 | 1860 | 2310 | 5100 | 8870 |
| 2026-05-09 04:15 | 2.19 | 687 | 37800 (2002) | 147 (1955) | 2630 | 198 | 248 | 379 | 478 | 1020 | 1860 | 2310 | 5100 | 8870 |
| 2026-05-09 03:15 | 2.20 | 692 | 37800 (2002) | 147 (1955) | 2630 | 198 | 248 | 379 | 478 | 1020 | 1860 | 2310 | 5100 | 8870 |
| 2026-05-09 02:15 | 2.20 | 692 | 37800 (2002) | 147 (1955) | 2630 | 198 | 248 | 379 | 478 | 1020 | 1860 | 2310 | 5100 | 8870 |
| 2026-05-09 01:15 | 2.21 | 697 | 37800 (2002) | 147 (1955) | 2630 | 198 | 248 | 379 | 478 | 1020 | 1860 | 2310 | 5100 | 8870 |
| 2026-05-09 00:15 | 2.23 | 708 | 37800 (2002) | 147 (1955) | 2630 | 198 | 248 | 379 | 478 | 1020 | 1860 | 2310 | 5100 | 8870 |
| 2026-05-08 23:15 | 2.23 | 708 | 37800 (2002) | 147 (1955) | 2630 | 198 | 248 | 379 | 478 | 1020 | 1860 | 2310 | 5100 | 8870 |
| 2026-05-08 22:15 | 2.22 | 702 | 24500 (1961) | 153 (1955) | 2300 | 216 | 259 | 393 | 491 | 994 | 2060 | 2790 | 5650 | 11200 |
| 2026-05-08 21:15 | 2.20 | 692 | 24500 (1961) | 153 (1955) | 2300 | 216 | 259 | 393 | 491 | 994 | 2060 | 2790 | 5650 | 11200 |
| 2026-05-08 20:15 | 2.17 | 677 | 24500 (1961) | 153 (1955) | 2300 | 216 | 259 | 393 | 491 | 994 | 2060 | 2790 | 5650 | 11200 |
| 2026-05-08 19:15 | 2.20 | 692 | 24500 (1961) | 153 (1955) | 2300 | 216 | 259 | 393 | 491 | 994 | 2060 | 2790 | 5650 | 11200 |
| 2026-05-08 18:15 | 2.20 | 692 | 24500 (1961) | 153 (1955) | 2300 | 216 | 259 | 393 | 491 | 994 | 2060 | 2790 | 5650 | 11200 |
| 2026-05-08 17:15 | 2.21 | 697 | 24500 (1961) | 153 (1955) | 2300 | 216 | 259 | 393 | 491 | 994 | 2060 | 2790 | 5650 | 11200 |
| 2026-05-08 16:15 | 2.21 | 697 | 24500 (1961) | 153 (1955) | 2300 | 216 | 259 | 393 | 491 | 994 | 2060 | 2790 | 5650 | 11200 |
| 2026-05-08 15:15 | 2.23 | 708 | 24500 (1961) | 153 (1955) | 2300 | 216 | 259 | 393 | 491 | 994 | 2060 | 2790 | 5650 | 11200 |
| 2026-05-08 14:15 | 2.23 | 708 | 24500 (1961) | 153 (1955) | 2300 | 216 | 259 | 393 | 491 | 994 | 2060 | 2790 | 5650 | 11200 |
| 2026-05-08 13:15 | 2.24 | 713 | 24500 (1961) | 153 (1955) | 2300 | 216 | 259 | 393 | 491 | 994 | 2060 | 2790 | 5650 | 11200 |
| 2026-05-08 12:15 | 2.25 | 718 | 24500 (1961) | 153 (1955) | 2300 | 216 | 259 | 393 | 491 | 994 | 2060 | 2790 | 5650 | 11200 |
| 2026-05-08 11:15 | 2.26 | 724 | 24500 (1961) | 153 (1955) | 2300 | 216 | 259 | 393 | 491 | 994 | 2060 | 2790 | 5650 | 11200 |
| 2026-05-08 10:15 | 2.27 | 729 | 24500 (1961) | 153 (1955) | 2300 | 216 | 259 | 393 | 491 | 994 | 2060 | 2790 | 5650 | 11200 |
| 2026-05-08 09:15 | 2.28 | 734 | 24500 (1961) | 153 (1955) | 2300 | 216 | 259 | 393 | 491 | 994 | 2060 | 2790 | 5650 | 11200 |
| 2026-05-08 08:15 | 2.27 | 729 | 24500 (1961) | 153 (1955) | 2300 | 216 | 259 | 393 | 491 | 994 | 2060 | 2790 | 5650 | 11200 |
| 2026-05-08 07:15 | 2.28 | 734 | 24500 (1961) | 153 (1955) | 2300 | 216 | 259 | 393 | 491 | 994 | 2060 | 2790 | 5650 | 11200 |
| 2026-05-08 06:15 | 2.28 | 734 | 24500 (1961) | 153 (1955) | 2300 | 216 | 259 | 393 | 491 | 994 | 2060 | 2790 | 5650 | 11200 |
| 2026-05-08 05:15 | 2.29 | 740 | 24500 (1961) | 153 (1955) | 2300 | 216 | 259 | 393 | 491 | 994 | 2060 | 2790 | 5650 | 11200 |
| 2026-05-08 04:15 | 2.31 | 750 | 24500 (1961) | 153 (1955) | 2300 | 216 | 259 | 393 | 491 | 994 | 2060 | 2790 | 5650 | 11200 |
| 2026-05-08 03:15 | 2.30 | 745 | 24500 (1961) | 153 (1955) | 2300 | 216 | 259 | 393 | 491 | 994 | 2060 | 2790 | 5650 | 11200 |
| 2026-05-08 02:15 | 2.32 | 756 | 24500 (1961) | 153 (1955) | 2300 | 216 | 259 | 393 | 491 | 994 | 2060 | 2790 | 5650 | 11200 |
| 2026-05-08 01:15 | 2.32 | 756 | 24500 (1961) | 153 (1955) | 2300 | 216 | 259 | 393 | 491 | 994 | 2060 | 2790 | 5650 | 11200 |
| 2026-05-08 00:15 | 2.33 | 761 | 24500 (1961) | 153 (1955) | 2300 | 216 | 259 | 393 | 491 | 994 | 2060 | 2790 | 5650 | 11200 |
| 2026-05-07 23:15 | 2.34 | 766 | 24500 (1961) | 153 (1955) | 2300 | 216 | 259 | 393 | 491 | 994 | 2060 | 2790 | 5650 | 11200 |
| 2026-05-07 22:15 | 2.34 | 766 | 26900 (2022) | 158 (1955) | 2130 | 232 | 274 | 388 | 466 | 1080 | 2050 | 2540 | 4150 | 8810 |
| 2026-05-07 21:15 | 2.34 | 766 | 26900 (2022) | 158 (1955) | 2130 | 232 | 274 | 388 | 466 | 1080 | 2050 | 2540 | 4150 | 8810 |
| 2026-05-07 20:15 | 2.34 | 766 | 26900 (2022) | 158 (1955) | 2130 | 232 | 274 | 388 | 466 | 1080 | 2050 | 2540 | 4150 | 8810 |
| 2026-05-07 19:15 | 2.36 | 777 | 26900 (2022) | 158 (1955) | 2130 | 232 | 274 | 388 | 466 | 1080 | 2050 | 2540 | 4150 | 8810 |
| 2026-05-07 18:15 | 2.38 | 788 | 26900 (2022) | 158 (1955) | 2130 | 232 | 274 | 388 | 466 | 1080 | 2050 | 2540 | 4150 | 8810 |
| 2026-05-07 17:15 | 2.37 | 783 | 26900 (2022) | 158 (1955) | 2130 | 232 | 274 | 388 | 466 | 1080 | 2050 | 2540 | 4150 | 8810 |
| 2026-05-07 16:15 | 2.40 | 799 | 26900 (2022) | 158 (1955) | 2130 | 232 | 274 | 388 | 466 | 1080 | 2050 | 2540 | 4150 | 8810 |
| 2026-05-07 15:15 | 2.40 | 799 | 26900 (2022) | 158 (1955) | 2130 | 232 | 274 | 388 | 466 | 1080 | 2050 | 2540 | 4150 | 8810 |
| 2026-05-07 14:15 | 2.41 | 805 | 26900 (2022) | 158 (1955) | 2130 | 232 | 274 | 388 | 466 | 1080 | 2050 | 2540 | 4150 | 8810 |
| 2026-05-07 13:15 | 2.42 | 811 | 26900 (2022) | 158 (1955) | 2130 | 232 | 274 | 388 | 466 | 1080 | 2050 | 2540 | 4150 | 8810 |
| 2026-05-07 12:15 | 2.43 | 816 | 26900 (2022) | 158 (1955) | 2130 | 232 | 274 | 388 | 466 | 1080 | 2050 | 2540 | 4150 | 8810 |
| 2026-05-07 11:15 | 2.42 | 811 | 26900 (2022) | 158 (1955) | 2130 | 232 | 274 | 388 | 466 | 1080 | 2050 | 2540 | 4150 | 8810 |
| 2026-05-07 10:15 | 2.43 | 816 | 26900 (2022) | 158 (1955) | 2130 | 232 | 274 | 388 | 466 | 1080 | 2050 | 2540 | 4150 | 8810 |
| 2026-05-07 09:15 | 2.44 | 822 | 26900 (2022) | 158 (1955) | 2130 | 232 | 274 | 388 | 466 | 1080 | 2050 | 2540 | 4150 | 8810 |
| 2026-05-07 08:15 | 2.45 | 827 | 26900 (2022) | 158 (1955) | 2130 | 232 | 274 | 388 | 466 | 1080 | 2050 | 2540 | 4150 | 8810 |
| 2026-05-07 07:15 | 2.46 | 833 | 26900 (2022) | 158 (1955) | 2130 | 232 | 274 | 388 | 466 | 1080 | 2050 | 2540 | 4150 | 8810 |
| 2026-05-07 06:15 | 2.48 | 844 | 26900 (2022) | 158 (1955) | 2130 | 232 | 274 | 388 | 466 | 1080 | 2050 | 2540 | 4150 | 8810 |
| 2026-05-07 05:15 | 2.48 | 844 | 26900 (2022) | 158 (1955) | 2130 | 232 | 274 | 388 | 466 | 1080 | 2050 | 2540 | 4150 | 8810 |
| 2026-05-07 04:15 | 2.48 | 844 | 26900 (2022) | 158 (1955) | 2130 | 232 | 274 | 388 | 466 | 1080 | 2050 | 2540 | 4150 | 8810 |
| 2026-05-07 03:15 | 2.50 | 856 | 26900 (2022) | 158 (1955) | 2130 | 232 | 274 | 388 | 466 | 1080 | 2050 | 2540 | 4150 | 8810 |
| 2026-05-07 02:15 | 2.50 | 856 | 26900 (2022) | 158 (1955) | 2130 | 232 | 274 | 388 | 466 | 1080 | 2050 | 2540 | 4150 | 8810 |
| 2026-05-07 01:15 | 2.50 | 856 | 26900 (2022) | 158 (1955) | 2130 | 232 | 274 | 388 | 466 | 1080 | 2050 | 2540 | 4150 | 8810 |
| 2026-05-07 00:15 | 2.51 | 862 | 26900 (2022) | 158 (1955) | 2130 | 232 | 274 | 388 | 466 | 1080 | 2050 | 2540 | 4150 | 8810 |
| 2026-05-06 23:15 | 2.52 | 867 | 26900 (2022) | 158 (1955) | 2130 | 232 | 274 | 388 | 466 | 1080 | 2050 | 2540 | 4150 | 8810 |
| 2026-05-06 22:15 | 2.54 | 879 | 37800 (2022) | 164 (1955) | 2430 | 237 | 289 | 395 | 466 | 1110 | 1950 | 2190 | 4700 | 11800 |
| 2026-05-06 21:15 | 2.53 | 873 | 37800 (2022) | 164 (1955) | 2430 | 237 | 289 | 395 | 466 | 1110 | 1950 | 2190 | 4700 | 11800 |
| 2026-05-06 20:15 | 2.55 | 885 | 37800 (2022) | 164 (1955) | 2430 | 237 | 289 | 395 | 466 | 1110 | 1950 | 2190 | 4700 | 11800 |
| 2026-05-06 19:15 | 2.56 | 891 | 37800 (2022) | 164 (1955) | 2430 | 237 | 289 | 395 | 466 | 1110 | 1950 | 2190 | 4700 | 11800 |
| 2026-05-06 18:15 | 2.58 | 902 | 37800 (2022) | 164 (1955) | 2430 | 237 | 289 | 395 | 466 | 1110 | 1950 | 2190 | 4700 | 11800 |
| 2026-05-06 17:15 | 2.60 | 914 | 37800 (2022) | 164 (1955) | 2430 | 237 | 289 | 395 | 466 | 1110 | 1950 | 2190 | 4700 | 11800 |
| 2026-05-06 16:15 | 2.62 | 926 | 37800 (2022) | 164 (1955) | 2430 | 237 | 289 | 395 | 466 | 1110 | 1950 | 2190 | 4700 | 11800 |
| 2026-05-06 15:15 | 2.64 | 938 | 37800 (2022) | 164 (1955) | 2430 | 237 | 289 | 395 | 466 | 1110 | 1950 | 2190 | 4700 | 11800 |
| 2026-05-06 14:15 | 2.64 | 938 | 37800 (2022) | 164 (1955) | 2430 | 237 | 289 | 395 | 466 | 1110 | 1950 | 2190 | 4700 | 11800 |
| 2026-05-06 13:15 | 2.64 | 938 | 37800 (2022) | 164 (1955) | 2430 | 237 | 289 | 395 | 466 | 1110 | 1950 | 2190 | 4700 | 11800 |
| 2026-05-06 12:15 | 2.66 | 950 | 37800 (2022) | 164 (1955) | 2430 | 237 | 289 | 395 | 466 | 1110 | 1950 | 2190 | 4700 | 11800 |
| 2026-05-06 11:15 | 2.66 | 950 | 37800 (2022) | 164 (1955) | 2430 | 237 | 289 | 395 | 466 | 1110 | 1950 | 2190 | 4700 | 11800 |
| 2026-05-06 10:15 | 2.66 | 950 | 37800 (2022) | 164 (1955) | 2430 | 237 | 289 | 395 | 466 | 1110 | 1950 | 2190 | 4700 | 11800 |
| 2026-05-06 09:15 | 2.68 | 962 | 37800 (2022) | 164 (1955) | 2430 | 237 | 289 | 395 | 466 | 1110 | 1950 | 2190 | 4700 | 11800 |
| 2026-05-06 08:15 | 2.68 | 962 | 37800 (2022) | 164 (1955) | 2430 | 237 | 289 | 395 | 466 | 1110 | 1950 | 2190 | 4700 | 11800 |
| 2026-05-06 07:15 | 2.69 | 968 | 37800 (2022) | 164 (1955) | 2430 | 237 | 289 | 395 | 466 | 1110 | 1950 | 2190 | 4700 | 11800 |
| 2026-05-06 06:15 | 2.69 | 968 | 37800 (2022) | 164 (1955) | 2430 | 237 | 289 | 395 | 466 | 1110 | 1950 | 2190 | 4700 | 11800 |
| 2026-05-06 05:15 | 2.70 | 974 | 37800 (2022) | 164 (1955) | 2430 | 237 | 289 | 395 | 466 | 1110 | 1950 | 2190 | 4700 | 11800 |
| 2026-05-06 04:15 | 2.71 | 980 | 37800 (2022) | 164 (1955) | 2430 | 237 | 289 | 395 | 466 | 1110 | 1950 | 2190 | 4700 | 11800 |
| 2026-05-06 03:15 | 2.73 | 992 | 37800 (2022) | 164 (1955) | 2430 | 237 | 289 | 395 | 466 | 1110 | 1950 | 2190 | 4700 | 11800 |
| 2026-05-06 02:15 | 2.75 | 1000 | 37800 (2022) | 164 (1955) | 2430 | 237 | 289 | 395 | 466 | 1110 | 1950 | 2190 | 4700 | 11800 |
| 2026-05-06 01:15 | 2.74 | 998 | 37800 (2022) | 164 (1955) | 2430 | 237 | 289 | 395 | 466 | 1110 | 1950 | 2190 | 4700 | 11800 |
| 2026-05-06 00:15 | 2.75 | 1000 | 37800 (2022) | 164 (1955) | 2430 | 237 | 289 | 395 | 466 | 1110 | 1950 | 2190 | 4700 | 11800 |
| 2026-05-05 23:15 | 2.75 | 1000 | 37800 (2022) | 164 (1955) | 2430 | 237 | 289 | 395 | 466 | 1110 | 1950 | 2190 | 4700 | 11800 |
| 2026-05-05 22:15 | 2.74 | 998 | 26800 (2017) | 170 (1955) | 2290 | 231 | 305 | 427 | 463 | 913 | 2310 | 2570 | 4720 | 10500 |
| 2026-05-05 21:15 | 2.74 | 998 | 26800 (2017) | 170 (1955) | 2290 | 231 | 305 | 427 | 463 | 913 | 2310 | 2570 | 4720 | 10500 |
| 2026-05-05 20:15 | 2.73 | 992 | 26800 (2017) | 170 (1955) | 2290 | 231 | 305 | 427 | 463 | 913 | 2310 | 2570 | 4720 | 10500 |
| 2026-05-05 19:15 | 2.74 | 998 | 26800 (2017) | 170 (1955) | 2290 | 231 | 305 | 427 | 463 | 913 | 2310 | 2570 | 4720 | 10500 |
| 2026-05-05 18:15 | 2.75 | 1000 | 26800 (2017) | 170 (1955) | 2290 | 231 | 305 | 427 | 463 | 913 | 2310 | 2570 | 4720 | 10500 |
| 2026-05-05 17:15 | 2.75 | 1000 | 26800 (2017) | 170 (1955) | 2290 | 231 | 305 | 427 | 463 | 913 | 2310 | 2570 | 4720 | 10500 |
| 2026-05-05 16:15 | 2.76 | 1010 | 26800 (2017) | 170 (1955) | 2290 | 231 | 305 | 427 | 463 | 913 | 2310 | 2570 | 4720 | 10500 |
| 2026-05-05 15:15 | 2.76 | 1010 | 26800 (2017) | 170 (1955) | 2290 | 231 | 305 | 427 | 463 | 913 | 2310 | 2570 | 4720 | 10500 |
| 2026-05-05 14:15 | 2.77 | 1020 | 26800 (2017) | 170 (1955) | 2290 | 231 | 305 | 427 | 463 | 913 | 2310 | 2570 | 4720 | 10500 |
| 2026-05-05 13:15 | 2.79 | 1030 | 26800 (2017) | 170 (1955) | 2290 | 231 | 305 | 427 | 463 | 913 | 2310 | 2570 | 4720 | 10500 |
| 2026-05-05 12:15 | 2.81 | 1040 | 26800 (2017) | 170 (1955) | 2290 | 231 | 305 | 427 | 463 | 913 | 2310 | 2570 | 4720 | 10500 |
| 2026-05-05 11:15 | 2.82 | 1050 | 26800 (2017) | 170 (1955) | 2290 | 231 | 305 | 427 | 463 | 913 | 2310 | 2570 | 4720 | 10500 |
| 2026-05-05 10:15 | 2.82 | 1050 | 26800 (2017) | 170 (1955) | 2290 | 231 | 305 | 427 | 463 | 913 | 2310 | 2570 | 4720 | 10500 |
| 2026-05-05 09:15 | 2.84 | 1060 | 26800 (2017) | 170 (1955) | 2290 | 231 | 305 | 427 | 463 | 913 | 2310 | 2570 | 4720 | 10500 |
| 2026-05-05 08:15 | 2.83 | 1050 | 26800 (2017) | 170 (1955) | 2290 | 231 | 305 | 427 | 463 | 913 | 2310 | 2570 | 4720 | 10500 |
| 2026-05-05 07:15 | 2.86 | 1070 | 26800 (2017) | 170 (1955) | 2290 | 231 | 305 | 427 | 463 | 913 | 2310 | 2570 | 4720 | 10500 |
| 2026-05-05 06:15 | 2.88 | 1090 | 26800 (2017) | 170 (1955) | 2290 | 231 | 305 | 427 | 463 | 913 | 2310 | 2570 | 4720 | 10500 |
| 2026-05-05 05:15 | 2.88 | 1090 | 26800 (2017) | 170 (1955) | 2290 | 231 | 305 | 427 | 463 | 913 | 2310 | 2570 | 4720 | 10500 |
| 2026-05-05 04:15 | 2.89 | 1090 | 26800 (2017) | 170 (1955) | 2290 | 231 | 305 | 427 | 463 | 913 | 2310 | 2570 | 4720 | 10500 |
| 2026-05-05 03:15 | 2.91 | 1110 | 26800 (2017) | 170 (1955) | 2290 | 231 | 305 | 427 | 463 | 913 | 2310 | 2570 | 4720 | 10500 |
| 2026-05-05 02:15 | 2.91 | 1110 | 26800 (2017) | 170 (1955) | 2290 | 231 | 305 | 427 | 463 | 913 | 2310 | 2570 | 4720 | 10500 |
| 2026-05-05 01:15 | 2.92 | 1110 | 26800 (2017) | 170 (1955) | 2290 | 231 | 305 | 427 | 463 | 913 | 2310 | 2570 | 4720 | 10500 |
| 2026-05-05 00:15 | 2.93 | 1120 | 26800 (2017) | 170 (1955) | 2290 | 231 | 305 | 427 | 463 | 913 | 2310 | 2570 | 4720 | 10500 |
| 2026-05-04 23:15 | 2.94 | 1130 | 26800 (2017) | 170 (1955) | 2290 | 231 | 305 | 427 | 463 | 913 | 2310 | 2570 | 4720 | 10500 |
| 2026-05-04 22:15 | 2.94 | 1130 | 20000 (2017) | 178 (1955) | 1950 | 249 | 325 | 430 | 483 | 1020 | 2330 | 2870 | 3770 | 6780 |
| 2026-05-04 21:15 | 2.96 | 1140 | 20000 (2017) | 178 (1955) | 1950 | 249 | 325 | 430 | 483 | 1020 | 2330 | 2870 | 3770 | 6780 |
| 2026-05-04 20:15 | 2.97 | 1140 | 20000 (2017) | 178 (1955) | 1950 | 249 | 325 | 430 | 483 | 1020 | 2330 | 2870 | 3770 | 6780 |
| 2026-05-04 19:15 | 3.00 | 1160 | 20000 (2017) | 178 (1955) | 1950 | 249 | 325 | 430 | 483 | 1020 | 2330 | 2870 | 3770 | 6780 |
| 2026-05-04 18:15 | 3.01 | 1170 | 20000 (2017) | 178 (1955) | 1950 | 249 | 325 | 430 | 483 | 1020 | 2330 | 2870 | 3770 | 6780 |
| 2026-05-04 17:15 | 3.02 | 1180 | 20000 (2017) | 178 (1955) | 1950 | 249 | 325 | 430 | 483 | 1020 | 2330 | 2870 | 3770 | 6780 |
| 2026-05-04 16:15 | 3.03 | 1180 | 20000 (2017) | 178 (1955) | 1950 | 249 | 325 | 430 | 483 | 1020 | 2330 | 2870 | 3770 | 6780 |
| 2026-05-04 15:15 | 3.04 | 1190 | 20000 (2017) | 178 (1955) | 1950 | 249 | 325 | 430 | 483 | 1020 | 2330 | 2870 | 3770 | 6780 |
| 2026-05-04 14:15 | 3.06 | 1210 | 20000 (2017) | 178 (1955) | 1950 | 249 | 325 | 430 | 483 | 1020 | 2330 | 2870 | 3770 | 6780 |
| 2026-05-04 13:15 | 3.07 | 1210 | 20000 (2017) | 178 (1955) | 1950 | 249 | 325 | 430 | 483 | 1020 | 2330 | 2870 | 3770 | 6780 |
| 2026-05-04 12:15 | 3.11 | 1240 | 20000 (2017) | 178 (1955) | 1950 | 249 | 325 | 430 | 483 | 1020 | 2330 | 2870 | 3770 | 6780 |
| 2026-05-04 11:15 | 3.10 | 1230 | 20000 (2017) | 178 (1955) | 1950 | 249 | 325 | 430 | 483 | 1020 | 2330 | 2870 | 3770 | 6780 |
| 2026-05-04 10:15 | 3.12 | 1250 | 20000 (2017) | 178 (1955) | 1950 | 249 | 325 | 430 | 483 | 1020 | 2330 | 2870 | 3770 | 6780 |
| 2026-05-04 09:15 | 3.13 | 1250 | 20000 (2017) | 178 (1955) | 1950 | 249 | 325 | 430 | 483 | 1020 | 2330 | 2870 | 3770 | 6780 |
| 2026-05-04 08:15 | 3.14 | 1260 | 20000 (2017) | 178 (1955) | 1950 | 249 | 325 | 430 | 483 | 1020 | 2330 | 2870 | 3770 | 6780 |
| 2026-05-04 07:15 | 3.16 | 1270 | 20000 (2017) | 178 (1955) | 1950 | 249 | 325 | 430 | 483 | 1020 | 2330 | 2870 | 3770 | 6780 |
| 2026-05-04 06:15 | 3.15 | 1270 | 20000 (2017) | 178 (1955) | 1950 | 249 | 325 | 430 | 483 | 1020 | 2330 | 2870 | 3770 | 6780 |
| 2026-05-04 05:15 | 3.18 | 1290 | 20000 (2017) | 178 (1955) | 1950 | 249 | 325 | 430 | 483 | 1020 | 2330 | 2870 | 3770 | 6780 |
| 2026-05-04 04:15 | 3.20 | 1300 | 20000 (2017) | 178 (1955) | 1950 | 249 | 325 | 430 | 483 | 1020 | 2330 | 2870 | 3770 | 6780 |
| 2026-05-04 03:15 | 3.21 | 1310 | 20000 (2017) | 178 (1955) | 1950 | 249 | 325 | 430 | 483 | 1020 | 2330 | 2870 | 3770 | 6780 |
| 2026-05-04 02:15 | 3.21 | 1310 | 20000 (2017) | 178 (1955) | 1950 | 249 | 325 | 430 | 483 | 1020 | 2330 | 2870 | 3770 | 6780 |
| 2026-05-04 01:15 | 3.24 | 1330 | 20000 (2017) | 178 (1955) | 1950 | 249 | 325 | 430 | 483 | 1020 | 2330 | 2870 | 3770 | 6780 |
| 2026-05-04 00:15 | 3.25 | 1340 | 20000 (2017) | 178 (1955) | 1950 | 249 | 325 | 430 | 483 | 1020 | 2330 | 2870 | 3770 | 6780 |
| 2026-05-03 23:15 | 3.26 | 1350 | 20000 (2017) | 178 (1955) | 1950 | 249 | 325 | 430 | 483 | 1020 | 2330 | 2870 | 3770 | 6780 |
| 2026-05-03 22:15 | 3.28 | 1360 | 18300 (1937) | 190 (1955) | 2170 | 255 | 351 | 474 | 520 | 1060 | 2570 | 2870 | 5210 | 9020 |
| 2026-05-03 21:15 | 3.31 | 1380 | 18300 (1937) | 190 (1955) | 2170 | 255 | 351 | 474 | 520 | 1060 | 2570 | 2870 | 5210 | 9020 |
| 2026-05-03 20:15 | 3.31 | 1380 | 18300 (1937) | 190 (1955) | 2170 | 255 | 351 | 474 | 520 | 1060 | 2570 | 2870 | 5210 | 9020 |
| 2026-05-03 19:15 | 3.32 | 1390 | 18300 (1937) | 190 (1955) | 2170 | 255 | 351 | 474 | 520 | 1060 | 2570 | 2870 | 5210 | 9020 |
| 2026-05-03 18:15 | 3.35 | 1410 | 18300 (1937) | 190 (1955) | 2170 | 255 | 351 | 474 | 520 | 1060 | 2570 | 2870 | 5210 | 9020 |
| 2026-05-03 17:15 | 3.36 | 1420 | 18300 (1937) | 190 (1955) | 2170 | 255 | 351 | 474 | 520 | 1060 | 2570 | 2870 | 5210 | 9020 |
| 2026-05-03 16:15 | 3.39 | 1440 | 18300 (1937) | 190 (1955) | 2170 | 255 | 351 | 474 | 520 | 1060 | 2570 | 2870 | 5210 | 9020 |
| 2026-05-03 15:15 | 3.40 | 1450 | 18300 (1937) | 190 (1955) | 2170 | 255 | 351 | 474 | 520 | 1060 | 2570 | 2870 | 5210 | 9020 |
| 2026-05-03 14:15 | 3.42 | 1460 | 18300 (1937) | 190 (1955) | 2170 | 255 | 351 | 474 | 520 | 1060 | 2570 | 2870 | 5210 | 9020 |
| 2026-05-03 13:15 | 3.43 | 1470 | 18300 (1937) | 190 (1955) | 2170 | 255 | 351 | 474 | 520 | 1060 | 2570 | 2870 | 5210 | 9020 |
| 2026-05-03 12:15 | 3.45 | 1490 | 18300 (1937) | 190 (1955) | 2170 | 255 | 351 | 474 | 520 | 1060 | 2570 | 2870 | 5210 | 9020 |
| 2026-05-03 11:15 | 3.47 | 1500 | 18300 (1937) | 190 (1955) | 2170 | 255 | 351 | 474 | 520 | 1060 | 2570 | 2870 | 5210 | 9020 |
| 2026-05-03 10:15 | 3.50 | 1520 | 18300 (1937) | 190 (1955) | 2170 | 255 | 351 | 474 | 520 | 1060 | 2570 | 2870 | 5210 | 9020 |
| 2026-05-03 09:15 | 3.50 | 1520 | 18300 (1937) | 190 (1955) | 2170 | 255 | 351 | 474 | 520 | 1060 | 2570 | 2870 | 5210 | 9020 |
| 2026-05-03 08:15 | 3.52 | 1540 | 18300 (1937) | 190 (1955) | 2170 | 255 | 351 | 474 | 520 | 1060 | 2570 | 2870 | 5210 | 9020 |
| 2026-05-03 07:15 | 3.54 | 1560 | 18300 (1937) | 190 (1955) | 2170 | 255 | 351 | 474 | 520 | 1060 | 2570 | 2870 | 5210 | 9020 |
| 2026-05-03 06:15 | 3.56 | 1570 | 18300 (1937) | 190 (1955) | 2170 | 255 | 351 | 474 | 520 | 1060 | 2570 | 2870 | 5210 | 9020 |
| 2026-05-03 05:15 | 3.57 | 1580 | 18300 (1937) | 190 (1955) | 2170 | 255 | 351 | 474 | 520 | 1060 | 2570 | 2870 | 5210 | 9020 |
| 2026-05-03 04:15 | 3.59 | 1590 | 18300 (1937) | 190 (1955) | 2170 | 255 | 351 | 474 | 520 | 1060 | 2570 | 2870 | 5210 | 9020 |
| 2026-05-03 03:15 | 3.60 | 1600 | 18300 (1937) | 190 (1955) | 2170 | 255 | 351 | 474 | 520 | 1060 | 2570 | 2870 | 5210 | 9020 |
| 2026-05-03 02:15 | 3.64 | 1630 | 18300 (1937) | 190 (1955) | 2170 | 255 | 351 | 474 | 520 | 1060 | 2570 | 2870 | 5210 | 9020 |
| 2026-05-03 01:15 | 3.65 | 1640 | 18300 (1937) | 190 (1955) | 2170 | 255 | 351 | 474 | 520 | 1060 | 2570 | 2870 | 5210 | 9020 |
| 2026-05-03 00:15 | 3.68 | 1670 | 18300 (1937) | 190 (1955) | 2170 | 255 | 351 | 474 | 520 | 1060 | 2570 | 2870 | 5210 | 9020 |
| 2026-05-02 23:15 | 3.68 | 1670 | 18300 (1937) | 190 (1955) | 2170 | 255 | 351 | 474 | 520 | 1060 | 2570 | 2870 | 5210 | 9020 |
A total of 177 rows are displayed for years 1929 through 2025.